createdAt,value
2022-11-28T00:01:41.376Z,7.30
2022-11-28T00:04:11.864Z,5.13
2022-11-28T00:06:42.438Z,5.13
2022-11-28T00:09:10.877Z,5.38
2022-11-28T00:11:41.148Z,7.38
2022-11-28T00:14:10.007Z,7.63
2022-11-28T00:16:38.769Z,6.43
2022-11-28T00:19:08.279Z,5.75
2022-11-28T00:21:38.851Z,4.70
2022-11-28T00:24:08.260Z,4.78
2022-11-28T00:26:38.728Z,5.65
2022-11-28T00:29:08.424Z,6.53
2022-11-28T00:31:42.949Z,5.70
2022-11-28T00:34:12.441Z,5.18
2022-11-28T00:36:42.706Z,7.25
2022-11-28T00:39:11.121Z,4.80
2022-11-28T00:41:39.521Z,4.43
2022-11-28T00:44:08.048Z,4.60
2022-11-28T00:46:37.001Z,5.10
2022-11-28T00:49:05.364Z,4.35
2022-11-28T00:51:35.616Z,4.68
2022-11-28T00:54:06.948Z,4.43
2022-11-28T00:56:37.487Z,3.65
2022-11-28T00:59:05.937Z,3.20
2022-11-28T01:01:36.272Z,3.53
2022-11-28T01:04:07.024Z,2.28
2022-11-28T01:06:38.817Z,2.38
2022-11-28T01:09:12.673Z,3.03
2022-11-28T01:11:42.200Z,2.05
2022-11-28T01:14:11.422Z,2.45
2022-11-28T01:16:40.364Z,2.00
2022-11-28T01:19:09.441Z,3.03
2022-11-28T01:21:37.952Z,2.40
2022-11-28T01:24:07.206Z,1.88
2022-11-28T01:26:39.613Z,2.03
2022-11-28T01:29:09.082Z,2.28
2022-11-28T01:31:37.579Z,3.00
2022-11-28T01:34:05.939Z,3.83
2022-11-28T01:36:34.382Z,5.13
2022-11-28T01:39:02.733Z,3.10
2022-11-28T01:41:31.188Z,2.60
2022-11-28T01:44:48.816Z,2.92
2022-11-28T01:47:22.154Z,3.15
2022-11-28T01:49:52.111Z,2.80
2022-11-28T01:52:21.927Z,3.25
2022-11-28T01:54:56.706Z,3.60
2022-11-28T01:57:26.848Z,3.22
2022-11-28T02:00:02.903Z,2.53
2022-11-28T02:02:36.164Z,2.42
2022-11-28T02:05:05.664Z,4.78
2022-11-28T02:07:34.609Z,2.55
2022-11-28T02:10:05.013Z,2.17
2022-11-28T02:13:08.072Z,2.03
2022-11-28T02:15:53.956Z,1.65
2022-11-28T02:18:38.330Z,2.35
2022-11-28T02:21:47.935Z,2.83
2022-11-28T02:25:02.029Z,1.67
2022-11-28T02:28:00.437Z,2.38
2022-11-28T02:30:40.155Z,1.80
2022-11-28T02:33:20.841Z,2.40
2022-11-28T02:35:58.470Z,2.25
2022-11-28T02:38:39.723Z,1.60
2022-11-28T02:41:17.166Z,1.80
2022-11-28T02:43:53.978Z,2.28
2022-11-28T02:46:27.812Z,2.60
2022-11-28T02:49:03.037Z,1.85
2022-11-28T02:51:37.325Z,2.35
2022-11-28T02:54:09.361Z,2.22
2022-11-28T02:56:37.962Z,2.00
2022-11-28T02:59:06.314Z,2.65
2022-11-28T03:01:39.705Z,6.13
2022-11-28T03:04:30.314Z,3.00
2022-11-28T03:07:09.504Z,3.75
2022-11-28T03:10:05.896Z,11.13
2022-11-28T03:12:46.778Z,4.25
2022-11-28T03:15:19.925Z,2.30
2022-11-28T03:17:56.582Z,3.22
2022-11-28T03:20:32.899Z,4.22
2022-11-28T03:23:12.568Z,5.00
2022-11-28T03:25:51.235Z,5.22
2022-11-28T03:28:25.620Z,4.82
2022-11-28T03:31:00.404Z,5.10
2022-11-28T03:33:33.121Z,4.35
2022-11-28T03:36:08.490Z,4.72
2022-11-28T03:38:42.041Z,4.47
2022-11-28T03:41:16.410Z,3.63
2022-11-28T03:43:49.277Z,7.80
2022-11-28T03:46:20.315Z,5.57
2022-11-28T03:48:52.602Z,5.10
2022-11-28T03:51:27.043Z,4.88
2022-11-28T03:54:13.119Z,4.80
2022-11-28T03:56:49.854Z,4.82
2022-11-28T03:59:21.340Z,4.30
2022-11-28T04:01:56.931Z,6.93
2022-11-28T04:04:33.580Z,6.72
2022-11-28T04:07:16.046Z,7.82
2022-11-28T04:09:50.249Z,4.82
2022-11-28T04:12:22.973Z,4.72
2022-11-28T04:14:57.332Z,4.05
2022-11-28T04:17:31.498Z,4.57
2022-11-28T04:20:07.292Z,4.45
2022-11-28T04:22:44.485Z,6.00
2022-11-28T04:25:16.058Z,5.10
2022-11-28T04:27:50.455Z,3.35
2022-11-28T04:30:19.094Z,4.28
2022-11-28T04:32:50.306Z,5.63
2022-11-28T04:35:24.265Z,4.57
2022-11-28T04:37:56.136Z,4.85
2022-11-28T04:40:25.705Z,6.53
2022-11-28T04:42:56.938Z,5.05
2022-11-28T04:45:31.587Z,4.60
2022-11-28T04:48:00.290Z,5.00
2022-11-28T04:50:33.740Z,4.57
2022-11-28T04:53:10.939Z,5.22
2022-11-28T04:55:43.558Z,5.30
2022-11-28T04:58:16.362Z,10.00
2022-11-28T05:00:45.782Z,4.67
2022-11-28T05:03:14.632Z,5.82
2022-11-28T05:05:45.525Z,5.88
2022-11-28T05:08:15.633Z,5.95
2022-11-28T05:10:44.186Z,7.45
2022-11-28T05:13:13.380Z,7.70
2022-11-28T05:15:41.825Z,7.72
2022-11-28T05:18:10.459Z,5.78
2022-11-28T05:20:39.662Z,4.95
2022-11-28T05:23:08.218Z,8.75
2022-11-28T05:25:40.578Z,5.65
2022-11-28T05:28:10.561Z,6.97
2022-11-28T05:30:39.104Z,5.80
2022-11-28T05:33:07.414Z,5.28
2022-11-28T05:35:35.685Z,8.07
2022-11-28T05:38:05.600Z,7.97
2022-11-28T05:40:43.840Z,8.13
2022-11-28T05:43:12.198Z,10.38
2022-11-28T05:45:41.812Z,6.30
2022-11-28T05:48:10.685Z,5.35
2022-11-28T05:50:41.012Z,5.57
2022-11-28T05:53:09.676Z,5.35
2022-11-28T05:55:41.373Z,5.90
2022-11-28T05:58:10.170Z,5.55
2022-11-28T06:00:39.054Z,6.38
2022-11-28T06:03:07.512Z,11.98
2022-11-28T06:05:42.780Z,8.20
2022-11-28T06:08:13.509Z,10.57
2022-11-28T06:10:43.183Z,10.05
2022-11-28T06:13:11.603Z,7.90
2022-11-28T06:15:45.031Z,9.75
2022-11-28T06:18:13.391Z,9.68
2022-11-28T06:20:42.081Z,6.45
2022-11-28T06:23:11.176Z,6.13
2022-11-28T06:25:39.534Z,7.05
2022-11-28T06:28:09.402Z,8.75
2022-11-28T06:30:37.909Z,9.90
2022-11-28T06:33:06.299Z,7.32
2022-11-28T06:35:34.708Z,6.57
2022-11-28T06:38:03.133Z,7.63
2022-11-28T06:40:31.400Z,8.43
2022-11-28T06:43:00.065Z,5.97
2022-11-28T06:45:29.913Z,4.20
2022-11-28T06:47:58.259Z,6.15
2022-11-28T06:50:27.267Z,4.72
2022-11-28T06:52:56.243Z,4.13
2022-11-28T06:55:24.699Z,8.63
2022-11-28T06:57:53.296Z,8.18
2022-11-28T07:00:22.529Z,5.22
2022-11-28T07:02:52.835Z,6.85
2022-11-28T07:05:23.038Z,7.38
2022-11-28T07:07:54.415Z,5.43
2022-11-28T07:10:24.069Z,6.15
2022-11-28T07:12:55.536Z,6.18
2022-11-28T07:15:24.557Z,4.80
2022-11-28T07:17:54.727Z,4.88
2022-11-28T07:20:22.980Z,4.88
2022-11-28T07:22:51.365Z,8.68
2022-11-28T07:25:19.896Z,6.60
2022-11-28T07:27:48.331Z,4.55
2022-11-28T07:30:17.525Z,7.03
2022-11-28T07:32:46.360Z,5.40
2022-11-28T07:35:16.897Z,6.57
2022-11-28T07:37:45.705Z,8.32
2022-11-28T07:40:14.835Z,4.85
2022-11-28T07:42:43.282Z,7.68
2022-11-28T07:45:12.716Z,12.00
2022-11-28T07:47:41.154Z,4.78
2022-11-28T07:50:10.787Z,5.50
2022-11-28T07:52:40.645Z,6.70
2022-11-28T07:55:09.380Z,5.43
2022-11-28T07:57:37.895Z,7.00
2022-11-28T08:00:07.185Z,6.82
2022-11-28T08:02:35.568Z,8.13
2022-11-28T08:05:04.028Z,7.45
2022-11-28T08:07:32.487Z,6.40
2022-11-28T08:10:02.915Z,11.30
2022-11-28T08:12:31.274Z,8.30
2022-11-28T08:14:59.656Z,5.47
2022-11-28T08:17:28.044Z,5.40
2022-11-28T08:19:56.407Z,6.57
2022-11-28T08:22:24.671Z,6.65
2022-11-28T08:24:53.094Z,9.43
2022-11-28T08:27:23.144Z,9.65
2022-11-28T08:29:53.520Z,5.30
2022-11-28T08:32:22.400Z,7.35
2022-11-28T08:34:51.170Z,7.85
2022-11-28T08:37:19.533Z,6.22
2022-11-28T08:39:47.952Z,7.35
2022-11-28T08:42:16.449Z,5.30
2022-11-28T08:44:46.327Z,9.45
2022-11-28T08:47:15.650Z,6.13
2022-11-28T08:49:44.829Z,5.53
2022-11-28T08:52:13.385Z,6.25
2022-11-28T08:54:41.882Z,7.45
2022-11-28T08:57:10.515Z,6.95
2022-11-28T08:59:38.827Z,9.25
2022-11-28T09:02:10.897Z,4.95
2022-11-28T09:04:39.267Z,6.85
2022-11-28T09:07:07.684Z,8.45
2022-11-28T09:09:35.955Z,7.57
2022-11-28T09:12:04.420Z,5.82
2022-11-28T09:14:33.101Z,6.78
2022-11-28T09:17:01.527Z,7.57
2022-11-28T09:19:31.403Z,6.47
2022-11-28T09:21:59.701Z,7.97
2022-11-28T09:24:28.061Z,6.38
2022-11-28T09:26:56.397Z,6.63
2022-11-28T09:29:24.738Z,7.95
2022-11-28T09:31:53.079Z,7.22
2022-11-28T09:34:21.576Z,6.55
2022-11-28T09:36:51.535Z,5.82
2022-11-28T09:39:19.815Z,7.93
2022-11-28T09:42:09.392Z,7.57
2022-11-28T09:44:43.618Z,7.80
2022-11-28T09:47:19.953Z,7.35
2022-11-28T09:49:51.032Z,5.63
2022-11-28T09:52:33.707Z,8.63
2022-11-28T09:55:12.404Z,6.70
2022-11-28T09:57:44.201Z,8.98
2022-11-28T10:00:18.995Z,8.50
2022-11-28T10:03:03.031Z,7.13
2022-11-28T10:08:23.190Z,6.97
2022-11-28T10:11:02.344Z,8.43
2022-11-28T10:14:06.754Z,8.55
2022-11-28T10:16:43.723Z,10.02
2022-11-28T10:19:38.610Z,5.60
2022-11-28T10:22:11.326Z,8.35
2022-11-28T10:24:46.638Z,5.78
2022-11-28T10:27:20.132Z,6.47
2022-11-28T10:29:59.169Z,6.32
2022-11-28T10:32:34.774Z,5.93
2022-11-28T10:35:07.360Z,6.53
2022-11-28T10:37:38.697Z,5.97
2022-11-28T10:40:19.427Z,6.47
2022-11-28T10:42:57.139Z,6.22
2022-11-28T10:45:33.223Z,7.40
2022-11-28T10:48:38.518Z,6.72
2022-11-28T10:51:09.643Z,8.50
2022-11-28T10:53:49.197Z,8.70
2022-11-28T10:56:34.387Z,9.05
2022-11-28T10:59:15.772Z,9.15
2022-11-28T11:01:48.818Z,7.18
2022-11-28T11:04:21.843Z,6.90
2022-11-28T11:07:09.904Z,7.13
2022-11-28T11:09:40.220Z,8.50
2022-11-28T11:12:21.162Z,7.28
2022-11-28T11:14:49.621Z,7.80
2022-11-28T11:17:32.645Z,9.40
2022-11-28T11:20:03.944Z,7.65
2022-11-28T11:22:32.939Z,7.30
2022-11-28T11:25:07.758Z,8.73
2022-11-28T11:27:39.096Z,11.18
2022-11-28T11:30:19.520Z,7.30
2022-11-28T11:32:51.602Z,11.57
2022-11-28T11:35:25.088Z,8.10
2022-11-28T11:37:54.007Z,8.73
2022-11-28T11:40:29.613Z,8.20
2022-11-28T11:43:01.551Z,10.48
2022-11-28T11:45:33.467Z,16.00
2022-11-28T11:48:03.527Z,9.55
2022-11-28T11:50:33.346Z,8.57
2022-11-28T11:53:04.064Z,12.30
2022-11-28T11:55:35.202Z,8.82
2022-11-28T11:58:07.012Z,7.20
2022-11-28T12:00:40.580Z,8.45
2022-11-28T12:03:21.977Z,8.32
2022-11-28T12:08:50.729Z,10.43
2022-11-28T12:11:26.439Z,10.63
2022-11-28T12:13:58.044Z,7.80
2022-11-28T12:16:41.291Z,8.23
2022-11-28T12:19:21.195Z,7.00
2022-11-28T12:22:02.920Z,8.93
2022-11-28T12:24:40.016Z,7.25
2022-11-28T12:27:17.858Z,8.15
2022-11-28T12:29:58.856Z,8.82
2022-11-28T12:32:41.729Z,7.13
2022-11-28T12:35:31.104Z,8.23
2022-11-28T12:38:11.072Z,8.20
2022-11-28T12:40:47.737Z,11.45
2022-11-28T12:43:29.533Z,8.38
2022-11-28T12:46:06.766Z,7.10
2022-11-28T12:48:53.075Z,7.10
2022-11-28T12:51:33.439Z,7.65
2022-11-28T12:54:16.347Z,7.75
2022-11-28T12:56:55.948Z,8.60
2022-11-28T12:59:33.856Z,7.95
2022-11-28T13:02:30.561Z,6.57
2022-11-28T13:05:21.373Z,7.15
2022-11-28T13:08:09.984Z,11.55
2022-11-28T13:10:43.838Z,7.90
2022-11-28T13:13:19.239Z,8.43
2022-11-28T13:16:04.800Z,10.52
2022-11-28T13:18:43.014Z,9.02
2022-11-28T13:21:25.627Z,8.48
2022-11-28T13:24:06.877Z,8.98
2022-11-28T13:26:47.684Z,7.07
2022-11-28T13:29:28.459Z,8.13
2022-11-28T13:32:06.397Z,9.80
2022-11-28T13:34:37.224Z,9.55
2022-11-28T13:40:14.682Z,14.82
2022-11-28T13:43:08.110Z,9.57
2022-11-28T13:45:39.224Z,7.47
2022-11-28T13:51:32.721Z,8.68
2022-11-28T13:54:45.827Z,9.02
2022-11-28T13:57:24.151Z,7.43
2022-11-28T13:59:56.238Z,7.97
2022-11-28T14:02:36.384Z,7.53
2022-11-28T14:05:07.616Z,11.13
2022-11-28T14:07:38.680Z,8.27
2022-11-28T14:10:26.534Z,10.40
2022-11-28T14:13:23.027Z,10.50
2022-11-28T14:16:04.913Z,6.55
2022-11-28T14:18:58.359Z,9.27
2022-11-28T14:21:40.411Z,11.10
2022-11-28T14:24:21.705Z,9.25
2022-11-28T14:27:00.398Z,9.30
2022-11-28T14:29:36.383Z,8.65
2022-11-28T14:32:35.927Z,10.38
2022-11-28T14:34:54.350Z,10.07
2022-11-28T14:37:54.137Z,8.20
2022-11-28T14:41:04.777Z,12.90
2022-11-28T14:43:36.425Z,10.30
2022-11-28T14:46:24.178Z,7.32
2022-11-28T14:49:24.225Z,12.90
2022-11-28T14:52:37.669Z,7.95
2022-11-28T14:55:17.658Z,8.13
2022-11-28T14:57:56.027Z,8.23
2022-11-28T15:00:28.344Z,9.50
2022-11-28T15:03:14.926Z,8.23
2022-11-28T15:05:46.827Z,8.52
2022-11-28T15:08:50.355Z,8.52
2022-11-28T15:11:40.728Z,9.52
2022-11-28T15:14:20.089Z,13.95
2022-11-28T15:16:53.239Z,8.50
2022-11-28T15:19:28.064Z,8.50
2022-11-28T15:21:57.196Z,9.38
2022-11-28T15:24:28.190Z,9.45
2022-11-28T15:26:59.339Z,10.15
2022-11-28T15:29:29.393Z,8.63
2022-11-28T15:31:59.982Z,10.77
2022-11-28T15:34:31.489Z,10.43
2022-11-28T15:37:02.427Z,8.48
2022-11-28T15:39:36.987Z,7.40
2022-11-28T15:42:08.195Z,7.63
2022-11-28T15:44:37.854Z,9.93
2022-11-28T15:47:19.991Z,8.18
2022-11-28T15:50:00.606Z,9.55
2022-11-28T15:52:29.953Z,8.48
2022-11-28T15:54:58.853Z,8.77
2022-11-28T15:57:28.760Z,8.93
2022-11-28T15:59:57.544Z,8.15
2022-11-28T16:02:32.150Z,7.90
2022-11-28T16:05:06.465Z,9.55
2022-11-28T16:07:40.586Z,10.90
2022-11-28T16:10:22.189Z,10.60
2022-11-28T16:12:51.323Z,9.40
2022-11-28T16:15:21.044Z,10.55
2022-11-28T16:17:51.413Z,9.07
2022-11-28T16:20:24.747Z,8.38
2022-11-28T16:22:59.678Z,8.60
2022-11-28T16:25:30.320Z,10.05
2022-11-28T16:27:58.858Z,10.35
2022-11-28T16:30:30.199Z,8.57
2022-11-28T16:32:59.911Z,11.65
2022-11-28T16:35:31.051Z,9.23
2022-11-28T16:38:07.379Z,10.18
2022-11-28T16:40:35.764Z,9.35
2022-11-28T16:43:06.253Z,9.68
2022-11-28T16:45:35.388Z,13.15
2022-11-28T16:48:12.677Z,9.20
2022-11-28T16:51:02.848Z,9.13
2022-11-28T16:53:45.603Z,8.50
2022-11-28T16:56:26.187Z,10.95
2022-11-28T16:58:56.994Z,9.57
2022-11-28T17:01:25.587Z,12.10
2022-11-28T17:03:57.443Z,9.90
2022-11-28T17:06:28.688Z,10.02
2022-11-28T17:08:57.236Z,9.35
2022-11-28T17:11:29.865Z,8.85
2022-11-28T17:13:59.592Z,14.27
2022-11-28T17:16:33.528Z,9.80
2022-11-28T17:19:03.360Z,10.88
2022-11-28T17:21:37.650Z,10.20
2022-11-28T17:24:07.637Z,10.07
2022-11-28T17:26:36.073Z,10.85
2022-11-28T17:29:04.530Z,14.60
2022-11-28T17:31:32.961Z,15.68
2022-11-28T17:34:03.000Z,11.32
2022-11-28T17:36:31.390Z,11.45
2022-11-28T17:39:04.866Z,11.10
2022-11-28T17:41:35.011Z,10.45
2022-11-28T17:44:03.388Z,9.35
2022-11-28T17:46:31.757Z,9.88
2022-11-28T17:49:00.398Z,9.93
2022-11-28T17:51:30.268Z,8.77
2022-11-28T17:53:58.652Z,9.52
2022-11-28T17:56:27.392Z,11.63
2022-11-28T17:58:56.039Z,9.95
2022-11-28T18:01:28.367Z,11.18
2022-11-28T18:03:56.871Z,10.80
2022-11-28T18:06:25.710Z,10.45
2022-11-28T18:08:55.541Z,10.93
2022-11-28T18:11:23.792Z,12.43
2022-11-28T18:13:52.275Z,9.93
2022-11-28T18:16:22.835Z,10.10
2022-11-28T18:18:51.394Z,10.20
2022-11-28T18:21:20.290Z,10.57
2022-11-28T18:23:50.850Z,11.32
2022-11-28T18:26:23.020Z,11.90
2022-11-28T18:28:52.009Z,10.25
2022-11-28T18:31:23.150Z,11.40
2022-11-28T18:33:51.624Z,11.23
2022-11-28T18:36:22.260Z,10.25
2022-11-28T18:38:52.500Z,11.00
2022-11-28T18:41:22.277Z,10.77
2022-11-28T18:43:51.778Z,11.70
2022-11-28T18:46:20.427Z,8.98
2022-11-28T18:48:50.654Z,11.13
2022-11-28T18:51:21.561Z,9.27
2022-11-28T18:53:51.389Z,13.52
2022-11-28T18:56:22.226Z,11.18
2022-11-28T18:58:52.928Z,10.43
2022-11-28T19:01:22.857Z,11.65
2022-11-28T19:03:53.182Z,10.63
2022-11-28T19:06:22.858Z,10.57
2022-11-28T19:08:54.980Z,10.48
2022-11-28T19:11:27.181Z,10.50
2022-11-28T19:13:56.016Z,10.15
2022-11-28T19:16:26.512Z,10.55
2022-11-28T19:18:55.979Z,11.15
2022-11-28T19:21:26.575Z,11.68
2022-11-28T19:23:56.556Z,10.50
2022-11-28T19:26:29.308Z,9.55
2022-11-28T19:28:59.676Z,10.27
2022-11-28T19:31:30.176Z,10.07
2022-11-28T19:34:01.767Z,9.10
2022-11-28T19:36:31.375Z,9.93
2022-11-28T19:39:00.113Z,9.68
2022-11-28T19:41:30.777Z,9.55
2022-11-28T19:43:59.171Z,11.98
2022-11-28T19:46:31.928Z,9.32
2022-11-28T19:49:02.732Z,9.27
2022-11-28T19:51:32.322Z,8.50
2022-11-28T19:54:03.961Z,8.88
2022-11-28T19:56:34.732Z,9.73
2022-11-28T19:59:03.627Z,9.00
2022-11-28T20:01:33.669Z,9.25
2022-11-28T20:04:03.088Z,8.50
2022-11-28T20:06:33.587Z,8.68
2022-11-28T20:09:05.335Z,7.03
2022-11-28T20:11:36.917Z,8.45
2022-11-28T20:14:07.775Z,8.30
2022-11-28T20:16:38.326Z,7.88
2022-11-28T20:19:08.051Z,8.52
2022-11-28T20:21:38.243Z,7.93
2022-11-28T20:24:08.432Z,10.82
2022-11-28T20:26:40.007Z,9.52
2022-11-28T20:29:09.378Z,8.63
2022-11-28T20:31:42.181Z,8.82
2022-11-28T20:34:10.501Z,7.73
2022-11-28T20:36:39.310Z,8.40
2022-11-28T20:39:10.151Z,7.15
2022-11-28T20:41:41.814Z,7.65
2022-11-28T20:44:12.253Z,8.75
2022-11-28T20:46:44.658Z,8.27
2022-11-28T20:49:16.446Z,7.93
2022-11-28T20:51:46.098Z,8.55
2022-11-28T20:54:15.177Z,7.70
2022-11-28T20:57:19.135Z,7.70
2022-11-28T20:59:34.281Z,7.00
2022-11-28T21:02:03.053Z,7.10
2022-11-28T21:04:31.748Z,8.70
2022-11-28T21:07:00.103Z,6.90
2022-11-28T21:09:28.590Z,7.47
2022-11-28T21:11:59.611Z,7.28
2022-11-28T21:14:29.540Z,7.38
2022-11-28T21:16:58.887Z,7.60
2022-11-28T21:19:28.959Z,7.63
2022-11-28T21:21:57.584Z,8.88
2022-11-28T21:24:26.006Z,8.60
2022-11-28T21:26:55.025Z,8.95
2022-11-28T21:29:26.312Z,9.80
2022-11-28T21:31:55.298Z,10.60
2022-11-28T21:34:23.797Z,9.15
2022-11-28T21:36:52.172Z,9.27
2022-11-28T21:39:23.055Z,10.30
2022-11-28T21:41:52.455Z,8.52
2022-11-28T21:44:21.350Z,8.35
2022-11-28T21:46:51.378Z,8.88
2022-11-28T21:49:21.773Z,8.20
2022-11-28T21:51:51.254Z,7.78
2022-11-28T21:54:19.653Z,8.73
2022-11-28T21:56:47.960Z,7.82
2022-11-28T21:59:16.567Z,8.57
2022-11-28T22:01:45.013Z,7.90
2022-11-28T22:04:15.196Z,9.68
2022-11-28T22:06:43.704Z,9.50
2022-11-28T22:09:12.464Z,8.25
2022-11-28T22:11:42.409Z,9.15
2022-11-28T22:14:10.800Z,8.55
2022-11-28T22:16:39.287Z,8.52
2022-11-28T22:19:08.435Z,8.55
2022-11-28T22:21:56.197Z,9.20
2022-11-28T22:24:25.243Z,8.40
2022-11-28T22:26:54.594Z,7.22
2022-11-28T22:29:23.108Z,8.25
2022-11-28T22:31:51.479Z,7.85
2022-11-28T22:34:20.050Z,7.15
2022-11-28T22:36:49.821Z,7.07
2022-11-28T22:39:18.562Z,9.00
2022-11-28T22:41:46.822Z,8.85
2022-11-28T22:44:15.225Z,6.30
2022-11-28T22:46:43.504Z,7.20
2022-11-28T22:49:12.444Z,6.40
2022-11-28T22:51:41.404Z,6.75
2022-11-28T22:54:13.874Z,6.00
2022-11-28T22:56:43.012Z,5.75
2022-11-28T22:59:15.053Z,5.57
2022-11-28T23:01:43.802Z,5.20
2022-11-28T23:04:12.615Z,5.70
2022-11-28T23:06:41.117Z,6.05
2022-11-28T23:09:13.393Z,6.32
2022-11-28T23:11:42.188Z,5.82
2022-11-28T23:14:13.089Z,5.60
2022-11-28T23:16:43.456Z,5.30
2022-11-28T23:19:13.576Z,4.55
2022-11-28T23:21:44.572Z,5.18
2022-11-28T23:24:17.278Z,8.20
2022-11-28T23:26:45.824Z,7.03
2022-11-28T23:29:14.811Z,4.78
2022-11-28T23:31:44.139Z,4.03
2022-11-28T23:34:12.925Z,4.47
2022-11-28T23:36:43.703Z,4.20
2022-11-28T23:39:13.781Z,4.90
2022-11-28T23:41:44.290Z,4.30
2022-11-28T23:44:13.462Z,4.78
2022-11-28T23:46:42.771Z,3.90
2022-11-28T23:49:11.811Z,4.60
2022-11-28T23:51:41.363Z,3.20
2022-11-28T23:54:11.496Z,3.92
2022-11-28T23:56:41.074Z,4.15
2022-11-28T23:59:12.691Z,3.80
